createdAt,value
2022-10-08T00:01:32.148Z,15.04
2022-10-08T00:04:00.761Z,15.05
2022-10-08T00:06:31.028Z,15.05
2022-10-08T00:09:02.240Z,15.04
2022-10-08T00:11:34.823Z,15.01
2022-10-08T00:14:03.588Z,15.01
2022-10-08T00:16:35.244Z,15.02
2022-10-08T00:19:07.992Z,15.01
2022-10-08T00:21:38.760Z,15.00
2022-10-08T00:24:09.589Z,15.00
2022-10-08T00:26:43.640Z,14.99
2022-10-08T00:29:14.561Z,14.98
2022-10-08T00:31:45.954Z,14.99
2022-10-08T00:34:18.345Z,14.99
2022-10-08T00:36:47.425Z,14.97
2022-10-08T00:39:18.201Z,14.96
2022-10-08T00:41:52.242Z,14.97
2022-10-08T00:44:54.096Z,14.95
2022-10-08T00:47:37.327Z,14.93
2022-10-08T00:50:11.432Z,14.93
2022-10-08T00:52:45.254Z,14.92
2022-10-08T00:55:16.519Z,14.93
2022-10-08T00:57:46.206Z,14.92
2022-10-08T01:00:20.811Z,14.92
2022-10-08T01:02:49.507Z,14.90
2022-10-08T01:05:27.738Z,14.92
2022-10-08T01:08:05.509Z,14.92
2022-10-08T01:10:41.542Z,14.90
2022-10-08T01:13:22.417Z,14.91
2022-10-08T01:16:02.022Z,14.85
2022-10-08T01:18:42.499Z,14.74
2022-10-08T01:21:13.948Z,14.62
2022-10-08T01:24:52.524Z,14.44
2022-10-08T01:27:29.746Z,14.35
2022-10-08T01:30:00.815Z,14.33
2022-10-08T01:32:37.191Z,14.35
2022-10-08T01:35:12.048Z,14.36
2022-10-08T01:37:43.085Z,14.34
2022-10-08T01:40:16.990Z,14.27
2022-10-08T01:42:49.403Z,14.12
2022-10-08T01:45:25.119Z,14.03
2022-10-08T01:47:55.821Z,13.97
2022-10-08T01:50:28.230Z,13.91
2022-10-08T01:53:00.704Z,13.85
2022-10-08T01:55:33.014Z,13.80
2022-10-08T01:58:07.184Z,13.71
2022-10-08T02:00:36.819Z,13.65
2022-10-08T02:03:05.500Z,13.58
2022-10-08T02:05:36.595Z,13.50
2022-10-08T02:08:05.562Z,13.45
2022-10-08T02:10:33.893Z,13.42
2022-10-08T02:13:03.841Z,13.38
2022-10-08T02:15:41.902Z,13.34
2022-10-08T02:18:16.348Z,13.31
2022-10-08T02:20:51.940Z,13.27
2022-10-08T02:23:27.257Z,13.19
2022-10-08T02:25:59.906Z,13.11
2022-10-08T02:28:37.553Z,13.03
2022-10-08T02:31:11.583Z,12.97
2022-10-08T02:33:45.247Z,12.93
2022-10-08T02:36:19.086Z,12.88
2022-10-08T02:38:53.877Z,12.85
2022-10-08T02:41:26.418Z,12.81
2022-10-08T02:43:59.804Z,12.77
2022-10-08T02:46:30.858Z,12.71
2022-10-08T02:49:06.015Z,12.68
2022-10-08T02:51:38.690Z,12.64
2022-10-08T02:54:07.558Z,12.60
2022-10-08T02:56:40.247Z,12.58
2022-10-08T02:59:10.666Z,12.55
2022-10-08T03:01:46.345Z,12.51
2022-10-08T03:04:18.946Z,12.49
2022-10-08T03:06:48.826Z,12.45
2022-10-08T03:09:18.517Z,12.42
2022-10-08T03:11:47.327Z,12.41
2022-10-08T03:14:20.508Z,12.39
2022-10-08T03:16:49.435Z,12.36
2022-10-08T03:19:19.860Z,12.35
2022-10-08T03:21:51.632Z,12.30
2022-10-08T03:24:19.785Z,12.29
2022-10-08T03:26:47.941Z,12.28
2022-10-08T03:29:17.450Z,12.26
2022-10-08T03:31:45.501Z,12.24
2022-10-08T03:34:13.590Z,12.22
2022-10-08T03:36:41.885Z,12.22
2022-10-08T03:39:11.575Z,12.22
2022-10-08T03:41:40.045Z,12.23
2022-10-08T03:44:10.699Z,12.21
2022-10-08T03:46:40.616Z,12.25
2022-10-08T03:49:08.900Z,12.25
2022-10-08T03:51:37.079Z,12.31
2022-10-08T03:54:05.558Z,12.37
2022-10-08T03:56:34.433Z,12.42
2022-10-08T03:59:03.934Z,12.49
2022-10-08T04:01:32.205Z,12.52
2022-10-08T04:04:01.700Z,12.57
2022-10-08T04:06:29.885Z,12.59
2022-10-08T04:09:01.078Z,12.57
2022-10-08T04:11:30.651Z,12.55
2022-10-08T04:13:58.853Z,12.50
2022-10-08T04:16:26.935Z,12.46
2022-10-08T04:18:55.197Z,12.42
2022-10-08T04:21:24.649Z,12.40
2022-10-08T04:23:52.856Z,12.38
2022-10-08T04:26:20.941Z,12.36
2022-10-08T04:28:49.210Z,12.35
2022-10-08T04:31:21.684Z,12.33
2022-10-08T04:33:51.051Z,12.29
2022-10-08T04:36:21.728Z,12.28
2022-10-08T04:38:52.033Z,12.27
2022-10-08T04:41:23.202Z,12.24
2022-10-08T04:43:52.911Z,12.21
2022-10-08T04:46:23.121Z,12.18
2022-10-08T04:48:53.789Z,12.16
2022-10-08T04:51:23.505Z,12.13
2022-10-08T04:53:53.960Z,12.10
2022-10-08T04:56:24.581Z,12.07
2022-10-08T04:58:55.055Z,12.05
2022-10-08T05:01:24.992Z,12.03
2022-10-08T05:03:56.546Z,12.01
2022-10-08T05:06:28.114Z,12.00
2022-10-08T05:08:59.843Z,11.99
2022-10-08T05:11:28.675Z,11.97
2022-10-08T05:13:59.045Z,11.95
2022-10-08T05:16:28.298Z,11.94
2022-10-08T05:18:57.506Z,11.94
2022-10-08T05:21:28.289Z,11.92
2022-10-08T05:24:00.043Z,11.89
2022-10-08T05:26:58.017Z,11.87
2022-10-08T05:29:20.629Z,11.84
2022-10-08T05:31:48.788Z,11.82
2022-10-08T05:34:17.135Z,11.83
2022-10-08T05:36:45.856Z,11.81
2022-10-08T05:39:15.695Z,11.80
2022-10-08T05:41:44.293Z,11.78
2022-10-08T05:44:13.099Z,11.78
2022-10-08T05:46:41.609Z,11.76
2022-10-08T05:49:18.157Z,11.76
2022-10-08T05:51:46.301Z,11.76
2022-10-08T05:54:16.659Z,11.76
2022-10-08T05:56:45.110Z,11.76
2022-10-08T05:59:18.084Z,11.75
2022-10-08T06:01:46.555Z,11.76
2022-10-08T06:04:15.041Z,11.76
2022-10-08T06:06:44.526Z,11.78
2022-10-08T06:09:16.895Z,11.78
2022-10-08T06:11:45.072Z,11.77
2022-10-08T06:14:16.728Z,11.78
2022-10-08T06:16:45.031Z,11.78
2022-10-08T06:19:13.312Z,11.78
2022-10-08T06:21:41.698Z,11.80
2022-10-08T06:24:12.646Z,11.81
2022-10-08T06:26:44.296Z,11.82
2022-10-08T06:29:16.417Z,11.84
2022-10-08T06:31:45.073Z,11.86
2022-10-08T06:34:13.305Z,11.88
2022-10-08T06:36:41.523Z,11.92
2022-10-08T06:39:13.220Z,11.95
2022-10-08T06:41:43.422Z,11.97
2022-10-08T06:44:13.724Z,12.00
2022-10-08T06:46:42.151Z,12.02
2022-10-08T06:49:12.261Z,12.07
2022-10-08T06:51:40.450Z,12.11
2022-10-08T06:54:08.954Z,12.23
2022-10-08T06:56:38.263Z,12.34
2022-10-08T06:59:08.314Z,12.44
2022-10-08T07:01:37.181Z,12.55
2022-10-08T07:04:07.000Z,12.63
2022-10-08T07:06:35.953Z,12.71
2022-10-08T07:09:06.802Z,12.73
2022-10-08T07:11:35.068Z,12.80
2022-10-08T07:14:03.289Z,13.01
2022-10-08T07:16:32.888Z,13.13
2022-10-08T07:19:01.860Z,13.18
2022-10-08T07:21:31.326Z,13.22
2022-10-08T07:24:01.997Z,13.26
2022-10-08T07:26:34.196Z,13.37
2022-10-08T07:29:06.887Z,13.51
2022-10-08T07:31:37.838Z,13.56
2022-10-08T07:34:08.582Z,13.48
2022-10-08T07:36:37.243Z,13.40
2022-10-08T07:39:08.261Z,13.37
2022-10-08T07:41:36.839Z,13.41
2022-10-08T07:44:06.932Z,13.45
2022-10-08T07:46:38.795Z,13.43
2022-10-08T07:49:06.906Z,13.44
2022-10-08T07:51:36.522Z,13.43
2022-10-08T07:54:07.397Z,13.39
2022-10-08T07:56:37.621Z,13.39
2022-10-08T07:59:07.274Z,13.50
2022-10-08T08:01:37.115Z,13.69
2022-10-08T08:04:07.543Z,13.89
2022-10-08T08:06:41.421Z,14.07
2022-10-08T08:09:10.344Z,14.17
2022-10-08T08:11:39.970Z,14.17
2022-10-08T08:14:08.650Z,14.13
2022-10-08T08:16:38.356Z,14.13
2022-10-08T08:19:07.045Z,14.14
2022-10-08T08:21:37.897Z,14.14
2022-10-08T08:24:07.929Z,14.19
2022-10-08T08:26:39.035Z,14.25
2022-10-08T08:29:09.771Z,14.29
2022-10-08T08:31:43.361Z,14.34
2022-10-08T08:34:14.994Z,14.44
2022-10-08T08:36:45.479Z,14.61
2022-10-08T08:39:18.303Z,14.87
2022-10-08T08:42:24.588Z,14.99
2022-10-08T08:44:59.971Z,14.98
2022-10-08T08:47:37.042Z,14.99
2022-10-08T08:50:14.360Z,15.00
2022-10-08T08:52:43.796Z,14.99
2022-10-08T08:55:17.545Z,15.06
2022-10-08T08:57:57.280Z,15.18
2022-10-08T09:00:32.264Z,15.45
2022-10-08T09:03:05.482Z,15.69
2022-10-08T09:05:41.771Z,15.88
2022-10-08T09:08:18.217Z,16.02
2022-10-08T09:10:52.542Z,16.08
2022-10-08T09:13:23.686Z,16.09
2022-10-08T09:15:52.998Z,16.09
2022-10-08T09:18:22.917Z,16.07
2022-10-08T09:20:51.020Z,15.97
2022-10-08T09:23:21.826Z,15.86
2022-10-08T09:25:57.554Z,15.83
2022-10-08T09:28:45.746Z,15.86
2022-10-08T09:31:25.382Z,15.91
2022-10-08T09:34:03.118Z,15.95
2022-10-08T09:36:39.537Z,15.95
2022-10-08T09:39:18.421Z,16.03
2022-10-08T09:41:49.005Z,16.07
2022-10-08T09:44:21.472Z,16.25
2022-10-08T09:47:05.425Z,16.48
2022-10-08T09:49:38.374Z,16.65
2022-10-08T09:52:17.191Z,16.70
2022-10-08T09:54:49.572Z,16.82
2022-10-08T09:57:20.385Z,17.04
2022-10-08T09:59:55.989Z,17.28
2022-10-08T10:02:34.618Z,17.56
2022-10-08T10:05:07.207Z,17.30
2022-10-08T10:07:42.281Z,16.98
2022-10-08T10:10:26.532Z,16.84
2022-10-08T10:12:59.694Z,16.95
2022-10-08T10:15:33.543Z,17.26
2022-10-08T10:18:06.841Z,17.60
2022-10-08T10:20:42.439Z,17.35
2022-10-08T10:23:16.330Z,16.41
2022-10-08T10:25:49.745Z,15.71
2022-10-08T10:28:27.057Z,15.21
2022-10-08T10:31:00.959Z,14.72
2022-10-08T10:33:34.558Z,14.42
2022-10-08T10:36:11.914Z,14.20
2022-10-08T10:38:46.840Z,14.02
2022-10-08T10:41:24.596Z,13.96
2022-10-08T10:43:55.920Z,14.07
2022-10-08T10:46:35.464Z,14.14
2022-10-08T10:49:04.000Z,14.18
2022-10-08T10:51:56.748Z,14.18
2022-10-08T10:54:52.232Z,14.24
2022-10-08T10:57:40.497Z,14.35
2022-10-08T11:00:15.622Z,14.47
2022-10-08T11:02:50.994Z,14.68
2022-10-08T11:05:25.689Z,14.72
2022-10-08T11:08:13.056Z,14.62
2022-10-08T11:10:56.390Z,14.49
2022-10-08T11:13:38.138Z,14.30
2022-10-08T11:16:22.628Z,14.22
2022-10-08T11:18:54.663Z,14.37
2022-10-08T11:21:46.225Z,14.60
2022-10-08T11:24:53.196Z,14.97
2022-10-08T11:27:34.453Z,15.37
2022-10-08T11:30:12.070Z,15.63
2022-10-08T11:32:41.694Z,15.71
2022-10-08T11:35:31.065Z,15.73
2022-10-08T11:38:10.756Z,15.82
2022-10-08T11:40:44.571Z,16.08
2022-10-08T11:43:19.110Z,16.26
2022-10-08T11:45:49.794Z,15.89
2022-10-08T11:48:34.731Z,15.65
2022-10-08T11:51:38.400Z,15.54
2022-10-08T11:54:15.488Z,15.59
2022-10-08T11:56:48.120Z,15.38
2022-10-08T11:59:37.395Z,15.32
2022-10-08T12:02:08.558Z,15.15
2022-10-08T12:04:38.800Z,14.89
2022-10-08T12:07:27.609Z,14.62
2022-10-08T12:10:34.963Z,14.45
2022-10-08T12:13:28.586Z,14.31
2022-10-08T12:16:08.181Z,14.17
2022-10-08T12:18:45.772Z,14.31
2022-10-08T12:21:56.799Z,14.37
2022-10-08T12:24:56.269Z,13.97
2022-10-08T12:27:30.659Z,13.67
2022-10-08T12:30:06.861Z,13.51
2022-10-08T12:32:56.985Z,13.42
2022-10-08T12:35:31.554Z,13.45
2022-10-08T12:38:26.234Z,13.45
2022-10-08T12:41:11.951Z,13.33
2022-10-08T12:43:48.798Z,13.20
2022-10-08T12:46:33.913Z,13.50
2022-10-08T12:49:07.448Z,14.57
2022-10-08T12:51:45.169Z,15.41
2022-10-08T12:54:21.333Z,16.05
2022-10-08T12:56:50.725Z,16.38
2022-10-08T12:59:19.736Z,16.66
2022-10-08T13:01:51.610Z,16.80
2022-10-08T13:04:22.318Z,16.83
2022-10-08T13:06:52.661Z,17.26
2022-10-08T13:09:28.974Z,17.68
2022-10-08T13:12:03.393Z,17.75
2022-10-08T13:14:34.695Z,17.35
2022-10-08T13:17:08.933Z,16.86
2022-10-08T13:19:39.187Z,16.62
2022-10-08T13:22:24.226Z,16.86
2022-10-08T13:24:52.897Z,17.00
2022-10-08T13:27:27.296Z,16.99
2022-10-08T13:29:55.939Z,16.94
2022-10-08T13:32:26.903Z,16.91
2022-10-08T13:34:58.523Z,16.37
2022-10-08T13:37:31.448Z,15.66
2022-10-08T13:40:01.883Z,15.41
2022-10-08T13:42:33.168Z,15.29
2022-10-08T13:45:02.976Z,14.97
2022-10-08T13:47:32.696Z,14.65
2022-10-08T13:50:02.256Z,14.32
2022-10-08T13:52:33.431Z,14.09
2022-10-08T13:55:04.993Z,13.92
2022-10-08T13:57:33.839Z,13.83
2022-10-08T14:00:01.934Z,13.83
2022-10-08T14:02:30.126Z,13.81
2022-10-08T14:04:59.633Z,13.83
2022-10-08T14:07:32.534Z,13.97
2022-10-08T14:10:01.987Z,14.18
2022-10-08T14:12:34.052Z,14.42
2022-10-08T14:15:03.023Z,14.64
2022-10-08T14:17:32.562Z,14.82
2022-10-08T14:20:04.568Z,14.97
2022-10-08T14:22:38.789Z,15.09
2022-10-08T14:25:11.919Z,15.19
2022-10-08T14:27:40.149Z,15.30
2022-10-08T14:30:11.417Z,15.41
2022-10-08T14:32:39.840Z,15.53
2022-10-08T14:35:10.719Z,15.68
2022-10-08T14:37:39.415Z,15.82
2022-10-08T14:40:10.212Z,15.93
2022-10-08T14:42:38.388Z,15.98
2022-10-08T14:45:07.971Z,15.99
2022-10-08T14:47:36.103Z,15.97
2022-10-08T14:50:04.520Z,15.94
2022-10-08T14:52:34.983Z,15.87
2022-10-08T14:55:03.114Z,15.88
2022-10-08T14:57:31.377Z,16.07
2022-10-08T14:59:59.549Z,16.30
2022-10-08T15:02:27.796Z,16.45
2022-10-08T15:04:56.066Z,16.56
2022-10-08T15:07:24.206Z,16.55
2022-10-08T15:09:53.705Z,16.43
2022-10-08T15:12:21.851Z,16.34
2022-10-08T15:14:49.933Z,16.27
2022-10-08T15:17:18.306Z,16.20
2022-10-08T15:19:46.902Z,16.17
2022-10-08T15:22:15.042Z,16.16
2022-10-08T15:24:43.309Z,16.13
2022-10-08T15:27:15.242Z,16.05
2022-10-08T15:29:46.831Z,15.97
2022-10-08T15:32:15.799Z,16.00
2022-10-08T15:34:44.024Z,16.37
2022-10-08T15:37:12.317Z,16.57
2022-10-08T15:39:40.789Z,17.14
2022-10-08T15:42:11.547Z,17.99
2022-10-08T15:44:44.202Z,18.48
2022-10-08T15:47:12.268Z,18.21
2022-10-08T15:49:42.816Z,17.89
2022-10-08T15:52:14.267Z,17.51
2022-10-08T15:54:43.590Z,17.03
2022-10-08T15:57:14.796Z,16.66
2022-10-08T15:59:44.785Z,16.34
2022-10-08T16:02:17.422Z,16.09
2022-10-08T16:04:47.801Z,15.82
2022-10-08T16:07:16.239Z,15.57
2022-10-08T16:09:44.438Z,15.38
2022-10-08T16:12:12.584Z,15.25
2022-10-08T16:14:40.765Z,15.13
2022-10-08T16:17:10.700Z,15.05
2022-10-08T16:19:38.865Z,14.97
2022-10-08T16:22:08.038Z,14.87
2022-10-08T16:24:36.264Z,14.76
2022-10-08T16:27:04.697Z,14.70
2022-10-08T16:29:32.817Z,14.61
2022-10-08T16:32:00.924Z,14.58
2022-10-08T16:34:31.761Z,14.58
2022-10-08T16:37:01.397Z,14.60
2022-10-08T16:39:29.626Z,14.59
2022-10-08T16:41:57.798Z,14.59
2022-10-08T16:44:25.985Z,14.57
2022-10-08T16:46:54.628Z,14.55
2022-10-08T16:49:26.273Z,14.49
2022-10-08T16:51:59.036Z,14.41
2022-10-08T16:54:28.605Z,14.29
2022-10-08T16:56:57.125Z,14.19
2022-10-08T16:59:28.138Z,14.07
2022-10-08T17:01:59.407Z,13.96
2022-10-08T17:04:29.758Z,13.87
2022-10-08T17:06:59.422Z,13.79
2022-10-08T17:09:27.727Z,13.72
2022-10-08T17:11:55.824Z,13.67
2022-10-08T17:14:23.927Z,13.62
2022-10-08T17:16:53.448Z,13.54
2022-10-08T17:19:21.708Z,13.47
2022-10-08T17:21:49.850Z,13.40
2022-10-08T17:24:19.434Z,13.33
2022-10-08T17:26:49.601Z,13.28
2022-10-08T17:29:17.766Z,13.22
2022-10-08T17:31:45.904Z,13.18
2022-10-08T17:34:14.142Z,13.14
2022-10-08T17:36:44.130Z,13.10
2022-10-08T17:39:15.070Z,13.00
2022-10-08T17:41:44.904Z,12.93
2022-10-08T17:44:13.904Z,12.81
2022-10-08T17:46:45.921Z,12.72
2022-10-08T17:49:15.086Z,12.62
2022-10-08T17:51:43.438Z,12.52
2022-10-08T17:54:14.823Z,12.48
2022-10-08T17:56:44.673Z,12.42
2022-10-08T17:59:15.642Z,12.36
2022-10-08T18:01:45.284Z,12.29
2022-10-08T18:04:16.698Z,12.25
2022-10-08T18:06:47.142Z,12.22
2022-10-08T18:09:18.476Z,12.20
2022-10-08T18:11:51.812Z,12.14
2022-10-08T18:14:20.735Z,12.10
2022-10-08T18:16:49.115Z,12.04
2022-10-08T18:19:18.043Z,11.99
2022-10-08T18:21:46.725Z,11.94
2022-10-08T18:24:15.011Z,11.87
2022-10-08T18:26:43.404Z,11.81
2022-10-08T18:29:15.410Z,11.79
2022-10-08T18:31:46.460Z,11.75
2022-10-08T18:34:18.227Z,11.75
2022-10-08T18:36:47.283Z,11.77
2022-10-08T18:39:17.665Z,11.84
2022-10-08T18:41:48.639Z,11.89
2022-10-08T18:44:21.422Z,11.91
2022-10-08T18:46:50.315Z,11.84
2022-10-08T18:49:20.710Z,11.77
2022-10-08T18:51:51.035Z,11.69
2022-10-08T18:54:19.432Z,11.61
2022-10-08T18:56:47.576Z,11.54
2022-10-08T18:59:18.637Z,11.45
2022-10-08T19:01:48.591Z,11.39
2022-10-08T19:04:19.508Z,11.36
2022-10-08T19:06:50.313Z,11.32
2022-10-08T19:09:18.883Z,11.30
2022-10-08T19:11:49.726Z,11.25
2022-10-08T19:14:22.362Z,11.20
2022-10-08T19:16:50.961Z,11.16
2022-10-08T19:19:21.023Z,11.13
2022-10-08T19:21:50.511Z,11.10
2022-10-08T19:24:20.779Z,11.08
2022-10-08T19:26:50.216Z,11.06
2022-10-08T19:29:22.593Z,11.06
2022-10-08T19:31:51.222Z,11.03
2022-10-08T19:34:22.345Z,11.03
2022-10-08T19:36:50.744Z,11.02
2022-10-08T19:39:20.947Z,11.01
2022-10-08T19:41:49.921Z,11.01
2022-10-08T19:44:20.323Z,11.04
2022-10-08T19:46:48.597Z,11.10
2022-10-08T19:49:17.517Z,11.15
2022-10-08T19:51:46.213Z,11.14
2022-10-08T19:54:14.780Z,11.15
2022-10-08T19:56:43.411Z,11.13
2022-10-08T19:59:12.895Z,11.10
2022-10-08T20:01:44.767Z,11.08
2022-10-08T20:04:14.086Z,11.04
2022-10-08T20:06:43.658Z,11.01
2022-10-08T20:09:14.016Z,10.98
2022-10-08T20:11:44.505Z,10.94
2022-10-08T20:14:14.679Z,10.88
2022-10-08T20:16:45.003Z,10.83
2022-10-08T20:19:18.256Z,10.78
2022-10-08T20:21:46.739Z,10.72
2022-10-08T20:24:15.680Z,10.64
2022-10-08T20:26:45.205Z,10.59
2022-10-08T20:29:15.727Z,10.56
2022-10-08T20:31:49.452Z,10.55
2022-10-08T20:34:19.873Z,10.50
2022-10-08T20:36:49.385Z,10.44
2022-10-08T20:39:22.818Z,10.44
2022-10-08T20:41:51.833Z,10.41
2022-10-08T20:44:20.499Z,10.37
2022-10-08T20:46:50.854Z,10.34
2022-10-08T20:49:19.697Z,10.30
2022-10-08T20:51:48.067Z,10.24
2022-10-08T20:54:18.036Z,10.20
2022-10-08T20:56:46.488Z,10.15
2022-10-08T20:59:17.652Z,10.14
2022-10-08T21:01:46.857Z,10.09
2022-10-08T21:04:16.530Z,10.07
2022-10-08T21:06:47.044Z,10.04
2022-10-08T21:09:16.998Z,10.02
2022-10-08T21:11:46.856Z,10.00
2022-10-08T21:14:18.434Z,9.99
2022-10-08T21:16:46.773Z,9.98
2022-10-08T21:19:21.949Z,9.98
2022-10-08T21:21:50.475Z,9.96
2022-10-08T21:24:18.883Z,9.94
2022-10-08T21:26:47.127Z,9.91
2022-10-08T21:29:16.309Z,9.90
2022-10-08T21:31:44.772Z,9.87
2022-10-08T21:34:15.174Z,9.84
2022-10-08T21:36:44.652Z,9.84
2022-10-08T21:39:17.674Z,9.82
2022-10-08T21:41:46.263Z,9.79
2022-10-08T21:44:15.378Z,9.77
2022-10-08T21:46:44.038Z,9.76
2022-10-08T21:49:16.527Z,9.77
2022-10-08T21:51:45.486Z,9.74
2022-10-08T21:54:14.400Z,9.75
2022-10-08T21:56:43.504Z,9.77
2022-10-08T21:59:14.559Z,9.77
2022-10-08T22:01:45.359Z,9.74
2022-10-08T22:04:17.553Z,9.75
2022-10-08T22:06:48.542Z,9.73
2022-10-08T22:09:19.159Z,9.72
2022-10-08T22:11:47.631Z,9.72
2022-10-08T22:14:16.388Z,9.72
2022-10-08T22:16:44.908Z,9.71
2022-10-08T22:19:14.824Z,9.70
2022-10-08T22:21:43.055Z,9.71
2022-10-08T22:24:11.411Z,9.69
2022-10-08T22:26:42.765Z,9.68
2022-10-08T22:29:11.251Z,9.70
2022-10-08T22:31:40.378Z,9.70
2022-10-08T22:34:08.868Z,9.69
2022-10-08T22:36:42.402Z,9.68
2022-10-08T22:39:10.984Z,9.66
2022-10-08T22:41:39.510Z,9.66
2022-10-08T22:44:07.919Z,9.66
2022-10-08T22:46:38.961Z,9.69
2022-10-08T22:49:09.745Z,9.76
2022-10-08T22:51:40.154Z,9.81
2022-10-08T22:54:10.016Z,9.82
2022-10-08T22:56:38.213Z,9.79
2022-10-08T22:59:06.397Z,9.77
2022-10-08T23:01:34.522Z,9.73
2022-10-08T23:04:02.585Z,9.73
2022-10-08T23:06:33.626Z,9.73
2022-10-08T23:09:05.507Z,9.76
2022-10-08T23:11:34.339Z,9.76
2022-10-08T23:14:03.179Z,9.74
2022-10-08T23:16:34.007Z,9.71
2022-10-08T23:19:05.153Z,9.66
2022-10-08T23:21:33.719Z,9.60
2022-10-08T23:24:03.656Z,9.57
2022-10-08T23:26:31.941Z,9.56
2022-10-08T23:29:01.853Z,9.51
2022-10-08T23:31:32.047Z,9.44
2022-10-08T23:34:01.270Z,9.37
2022-10-08T23:36:34.686Z,9.30
2022-10-08T23:39:05.584Z,9.24
2022-10-08T23:41:33.959Z,9.20
2022-10-08T23:44:02.131Z,9.15
2022-10-08T23:46:31.758Z,9.14
2022-10-08T23:49:01.064Z,9.09
2022-10-08T23:51:32.101Z,9.06
2022-10-08T23:54:01.012Z,9.03
2022-10-08T23:56:31.024Z,8.97
2022-10-08T23:58:59.544Z,8.95
